Chestnutburg, Kentucky
Current Conditions -  °F | °C
As of 6:53 PM on Thursday 18 Dec 2014 (Local Time) from KLOZ Reporting Station
Overcast Overcast  
Wind Chill: 31°   Ceiling: 4500
Heat Index: 35°   Visibility: 10mi
Dew Point: 26°   Wind: 5mph
Humidity: 70%   Direction: 280°W
Pressure: 30.18"   Gusts: NA
Location:  37.1101°N, 83.7537°W
Report Text: KLOZ 182353Z AUTO 28004KT 10SM OVC045 02/M03 A3018 RMK AO2 SLP230 T00171033 10028 20017 53005
Loading
Personal Weather Stations






























Interactive Weather Map New forecast layout! Learn more

10-Day Weather Forecast

Advertisements
Track Severe Weather on mobile